Track Кургузкин Виктор

Time Latitude Longitude Accuracy (66% radius in meters) Altitude (meters) Speed (km/hour) Bearing (degrees) Battery (%) GPS flag
10:57:35 51.811039 39.391128 6 123.48840173396 0 9.6956462860107 78 1 delete
10:57:23 51.811039 39.391128 8 123.46473797011 0 9.6956462860107 78 1 delete
10:57:11 51.811039 39.391128 12 123.35728225825 0 9.6956462860107 78 1 delete
10:56:56 51.811039 39.391128 16 122.98652426407 0 9.6956462860107 78 1 delete
10:56:44 51.811039 39.391128 8 122.90140076929 0 9.6956462860107 78 1 delete
10:56:29 51.811039 39.391128 16 122.724301944 0 9.6956462860107 78 1 delete
10:56:17 51.811039 39.391128 8 122.72622855819 0 9.6956462860107 78 1 delete
10:56:05 51.811039 39.391128 12 122.77737025196 0 9.6956462860107 78 1 delete
10:55:47 51.811039 39.391128 6 122.57945385907 0 9.6956462860107 78 1 delete
10:55:29 51.811039 39.391128 12 122.49549758327 0 9.6956462860107 78 1 delete
10:55:17 51.811039 39.391128 16 122.403946776 0 9.6956462860107 78 1 delete
10:55:02 51.811039 39.391128 12 122.10817607984 0 9.6956462860107 78 1 delete
10:54:38 51.811039 39.391128 16 121.15768043176 0 9.6956462860107 78 1 delete
10:54:23 51.811039 39.391128 8 120.80137793268 0 9.6956462860107 78 1 delete
10:54:02 51.811039 39.391128 12 120.39023218978 0 9.6956462860107 78 1 delete
10:53:44 51.811039 39.391128 4 119.99163717798 0 9.6956462860107 78 1 delete
10:53:23 51.811039 39.391128 8 119.59488995841 0 9.6956462860107 78 1 delete
10:53:11 51.811039 39.391128 8 119.35692859889 0 9.6956462860107 78 1 delete
10:52:56 51.811039 39.391128 8 119.20783756812 0 9.6956462860107 78 1 delete
10:52:29 51.811039 39.391128 16 119.02919427944 0 9.6956462860107 78 1 delete
10:52:14 51.811039 39.391128 16 118.8039475116 0 9.6956462860107 78 1 delete
10:51:59 51.811039 39.391128 12 118.76471120149 0 9.6956462860107 78 1 delete
10:51:44 51.811039 39.391128 12 118.62943965665 0 9.6956462860107 78 1 delete
10:51:32 51.811039 39.391128 12 118.75677973706 0 9.6956462860107 81 1 delete
10:51:20 51.811039 39.391128 8 118.97421811983 0 9.6956462860107 81 1 delete
10:51:05 51.811039 39.391128 12 119.23035163072 0 9.6956462860107 81 1 delete
10:50:53 51.811039 39.391128 8 119.28031284704 0 9.6956462860107 81 1 delete
10:50:38 51.811039 39.391128 8 119.3991922781 0 9.6956462860107 81 1 delete
10:50:27 51.811039 39.391128 12 119.38092866937 0 9.6956462860107 81 1 delete
10:50:18 51.811039 39.391128 12 119.23705495215 0 9.6956462860107 81 1 delete
10:50:03 51.811039 39.391128 12 119.13015984086 0 9.6956462860107 81 1 delete
10:49:51 51.811039 39.391128 8 119.15890947474 0 9.6956462860107 81 1 delete
10:49:39 51.811039 39.391128 8 119.3086467279 0 9.6956462860107 81 1 delete
10:49:27 51.811039 39.391128 16 119.17510336837 0 9.6956462860107 81 1 delete
10:49:15 51.811039 39.391128 12 119.29303110448 0 9.6956462860107 81 1 delete
10:49:03 51.811039 39.391128 12 119.49519177703 0 9.6956462860107 81 1 delete
10:48:51 51.811039 39.391128 12 119.224575725 0 9.6956462860107 81 1 delete
10:48:39 51.811039 39.391128 6 118.92854491875 0 9.6956462860107 81 1 delete
10:48:27 51.811039 39.391128 8 119.00510446515 0 9.6956462860107 81 1 delete
10:48:15 51.811039 39.391128 8 119.05190091397 0 9.6956462860107 81 1 delete
10:48:03 51.811039 39.391128 8 119.13697175799 0 9.6956462860107 81 1 delete
10:47:48 51.811039 39.391128 8 119.00546385783 0 9.6956462860107 81 1 delete
10:47:36 51.811039 39.391128 8 119.05939166528 0 9.6956462860107 81 1 delete
10:47:24 51.811039 39.391128 8 119.13796005402 0 9.6956462860107 81 1 delete
10:47:09 51.811039 39.391128 8 119.19485159712 0 9.6956462860107 81 1 delete
10:46:57 51.811039 39.391128 8 119.23217030092 0 9.6956462860107 81 1 delete
10:46:45 51.811039 39.391128 16 119.16856840463 0 9.6956462860107 81 1 delete
10:46:24 51.811039 39.391128 8 119.09743720788 0 9.6956462860107 81 1 delete
10:46:09 51.811039 39.391128 8 118.96398415596 0 9.6956462860107 81 1 delete
10:45:57 51.811039 39.391128 12 118.85990694244 0 9.6956462860107 81 1 delete